KCDW/CDW METAR and TAF weather

Enter ICAO airport designator
Station Type Date Time Source
KCDW METAR 2020/07/15 03:53 UTC NOAA

KCDW 150353Z AUTO 00000KT 10SM CLR 23/18 A3007 RMK AO2 SLP185 T02280178


Station Type Date Time Source
KCDW Decoded METAR 2020/07/15 03:53 UTC NOAA

CALDWELL ESSEX COUNTY AIRPORT , NJ, United States (KCDW) 40-53N 074-17W 64M
Jul 14, 2020 - 11:53 PM EDT / 2020.07.15 0353 UTC
Wind: Calm:0
Visibility: 10 mile(s):0
Sky conditions: clear
Temperature: 73.0 F (22.8 C)
Dew Point: 64.0 F (17.8 C)
Relative Humidity: 73%
Pressure (altimeter): 30.07 in. Hg (1018 hPa)
ob: KCDW 150353Z AUTO 00000KT 10SM CLR 23/18 A3007 RMK AO2 SLP185 T02280178
cycle: 4

Station Type Date Time Source
KCDW TAF UTC NOAA

Error!

Example: see airport list